createdAt,value
2022-12-01T00:01:23.375Z,15.98
2022-12-01T00:04:39.823Z,17.23
2022-12-01T00:07:28.356Z,15.32
2022-12-01T00:10:13.408Z,19.73
2022-12-01T00:12:43.498Z,16.27
2022-12-01T00:15:13.330Z,18.58
2022-12-01T00:17:39.850Z,15.82
2022-12-01T00:20:07.203Z,16.50
2022-12-01T00:22:33.762Z,20.48
2022-12-01T00:25:00.368Z,15.38
2022-12-01T00:27:26.907Z,16.85
2022-12-01T00:29:53.487Z,16.45
2022-12-01T00:32:20.102Z,15.02
2022-12-01T00:34:46.660Z,15.52
2022-12-01T00:37:33.112Z,16.12
2022-12-01T00:39:59.671Z,17.25
2022-12-01T00:42:26.904Z,17.08
2022-12-01T00:44:53.803Z,16.98
2022-12-01T00:47:20.748Z,17.52
2022-12-01T00:50:15.198Z,18.48
2022-12-01T00:53:00.712Z,17.58
2022-12-01T00:55:27.261Z,17.27
2022-12-01T00:57:53.769Z,15.88
2022-12-01T01:00:20.608Z,17.42
2022-12-01T01:02:47.259Z,16.83
2022-12-01T01:05:13.819Z,18.48
2022-12-01T01:07:40.386Z,19.10
2022-12-01T01:10:07.480Z,18.02
2022-12-01T01:12:34.140Z,16.58
2022-12-01T01:15:00.673Z,18.55
2022-12-01T01:17:27.198Z,17.70
2022-12-01T01:19:54.003Z,19.77
2022-12-01T01:24:55.813Z,18.87
2022-12-01T01:27:26.402Z,17.48
2022-12-01T01:29:52.935Z,19.42
2022-12-01T01:43:55.192Z,18.77
2022-12-01T01:46:32.290Z,21.40
2022-12-01T01:49:02.036Z,20.37
2022-12-01T01:51:50.389Z,18.75
2022-12-01T01:54:28.729Z,20.52
2022-12-01T01:56:57.607Z,21.62
2022-12-01T01:59:42.912Z,21.42
2022-12-01T02:02:12.214Z,19.25
2022-12-01T02:09:52.871Z,22.08
2022-12-01T02:12:47.337Z,20.65
2022-12-01T02:15:37.920Z,20.88
2022-12-01T02:18:20.793Z,21.75
2022-12-01T02:21:19.545Z,21.95
2022-12-01T02:24:19.611Z,22.98
2022-12-01T02:30:01.826Z,20.10
2022-12-01T02:32:47.361Z,20.30
2022-12-01T02:35:42.753Z,20.15
2022-12-01T02:38:28.183Z,21.00
2022-12-01T02:41:02.034Z,19.17
2022-12-01T02:44:04.026Z,19.67
2022-12-01T02:49:25.706Z,18.58
2022-12-01T02:51:54.654Z,18.98
2022-12-01T02:54:22.684Z,19.67
2022-12-01T02:56:52.960Z,19.10
2022-12-01T02:59:19.864Z,16.90
2022-12-01T03:02:11.758Z,18.52
2022-12-01T03:05:00.769Z,18.60
2022-12-01T03:07:33.381Z,17.12
2022-12-01T03:10:25.190Z,20.25
2022-12-01T03:13:03.875Z,19.23
2022-12-01T03:15:36.630Z,20.48
2022-12-01T03:18:19.503Z,18.60
2022-12-01T03:20:51.628Z,19.90
2022-12-01T03:23:23.307Z,19.17
2022-12-01T03:25:52.448Z,18.33
2022-12-01T03:28:23.161Z,18.85
2022-12-01T03:30:55.864Z,18.17
2022-12-01T03:33:33.887Z,18.20
2022-12-01T03:36:10.261Z,17.37
2022-12-01T03:38:37.562Z,19.42
2022-12-01T03:41:14.370Z,17.65
2022-12-01T03:47:04.259Z,19.65
2022-12-01T03:49:31.833Z,18.92
2022-12-01T03:51:58.494Z,18.15
2022-12-01T03:54:46.755Z,19.30
2022-12-01T03:57:26.480Z,20.05
2022-12-01T03:59:54.151Z,16.70
2022-12-01T04:02:20.909Z,18.17
2022-12-01T04:04:47.541Z,18.73
2022-12-01T04:07:14.876Z,17.05
2022-12-01T04:09:41.995Z,20.12
2022-12-01T04:12:32.996Z,17.65
2022-12-01T04:15:02.728Z,17.30
2022-12-01T04:17:29.981Z,18.35
2022-12-01T04:19:56.797Z,17.02
2022-12-01T04:22:24.463Z,16.98
2022-12-01T04:24:51.288Z,20.23
2022-12-01T04:27:18.284Z,16.87
2022-12-01T04:29:44.834Z,18.27
2022-12-01T04:34:46.592Z,17.30
2022-12-01T04:37:13.213Z,15.88
2022-12-01T04:39:42.103Z,19.48
2022-12-01T04:42:09.796Z,25.65
2022-12-01T04:44:37.188Z,28.87
2022-12-01T04:50:49.581Z,23.92
2022-12-01T04:53:16.138Z,24.92
2022-12-01T04:55:42.683Z,24.33
2022-12-01T04:58:09.211Z,26.12
2022-12-01T05:00:35.777Z,24.48
2022-12-01T05:03:15.058Z,23.70
2022-12-01T05:05:42.395Z,23.90
2022-12-01T05:08:08.956Z,21.30
2022-12-01T05:10:36.965Z,21.25
2022-12-01T05:13:05.251Z,21.67
2022-12-01T05:18:13.403Z,23.17
2022-12-01T05:20:59.245Z,22.58
2022-12-01T05:23:32.094Z,19.60
2022-12-01T05:25:59.048Z,20.95
2022-12-01T05:28:26.888Z,21.77
2022-12-01T05:30:54.774Z,21.62
2022-12-01T05:33:22.637Z,22.65
2022-12-01T05:46:30.496Z,22.60
2022-12-01T05:48:57.104Z,21.02
2022-12-01T05:51:23.747Z,22.35
2022-12-01T05:53:50.290Z,19.92
2022-12-01T05:56:19.319Z,22.73
2022-12-01T05:58:45.891Z,22.00
2022-12-01T06:04:01.470Z,21.95
2022-12-01T06:06:28.056Z,21.92
2022-12-01T06:08:54.782Z,23.75
2022-12-01T06:11:21.513Z,24.08
2022-12-01T06:13:48.085Z,21.92
2022-12-01T06:16:14.838Z,21.73
2022-12-01T06:18:42.787Z,22.52
2022-12-01T06:28:58.483Z,24.85
2022-12-01T07:29:21.467Z,37.13
2022-12-01T07:40:31.301Z,34.28
2022-12-01T08:12:39.513Z,31.92
2022-12-01T08:15:06.609Z,34.38
2022-12-01T08:17:33.210Z,36.33
2022-12-01T08:20:00.487Z,34.38
2022-12-01T08:22:27.008Z,32.25
2022-12-01T08:24:53.565Z,29.10
2022-12-01T08:27:20.188Z,25.48
2022-12-01T08:29:47.335Z,29.15
2022-12-01T08:33:16.124Z,38.42
2022-12-01T08:35:16.780Z,33.75
2022-12-01T08:43:00.924Z,33.30
2022-12-01T08:45:35.303Z,31.60
2022-12-01T08:48:02.073Z,35.13
2022-12-01T08:53:09.668Z,32.33
2022-12-01T08:55:36.431Z,28.55
2022-12-01T09:08:47.572Z,28.00
2022-12-01T09:11:16.529Z,28.95
2022-12-01T09:13:54.961Z,28.87
2022-12-01T09:16:22.205Z,22.77
2022-12-01T09:18:49.263Z,24.27
2022-12-01T09:21:24.087Z,26.08
2022-12-01T09:23:50.883Z,23.17
2022-12-01T09:26:22.849Z,26.20
2022-12-01T09:29:13.795Z,20.55
2022-12-01T09:31:41.092Z,20.35
2022-12-01T09:34:12.018Z,20.08
2022-12-01T09:36:38.834Z,19.05
2022-12-01T09:39:09.065Z,20.17
2022-12-01T09:41:40.716Z,21.62
2022-12-01T09:44:30.391Z,20.08
2022-12-01T09:47:34.600Z,18.80
2022-12-01T09:50:07.760Z,22.13
2022-12-01T09:52:53.325Z,23.62
2022-12-01T09:57:57.456Z,20.00
2022-12-01T10:00:30.779Z,35.10
2022-12-01T10:03:45.050Z,23.30
2022-12-01T10:09:12.462Z,25.80
2022-12-01T10:11:43.491Z,21.60
2022-12-01T10:14:22.397Z,24.83
2022-12-01T10:17:26.754Z,27.50
2022-12-01T10:20:31.789Z,25.30
2022-12-01T10:23:15.198Z,28.80
2022-12-01T10:25:44.781Z,28.70
2022-12-01T10:31:58.474Z,21.48
2022-12-01T10:34:28.788Z,19.08
2022-12-01T10:36:56.946Z,22.15
2022-12-01T10:39:39.690Z,21.27
2022-12-01T10:42:11.143Z,20.60
2022-12-01T10:44:38.161Z,21.50
2022-12-01T10:47:37.650Z,22.52
2022-12-01T10:50:04.619Z,19.95
2022-12-01T10:52:43.152Z,22.70
2022-12-01T10:55:27.886Z,20.45
2022-12-01T10:57:57.862Z,18.23
2022-12-01T11:03:22.689Z,21.20
2022-12-01T11:06:07.760Z,19.62
2022-12-01T11:08:40.361Z,20.20
2022-12-01T11:11:24.760Z,19.27
2022-12-01T11:13:51.609Z,19.52
2022-12-01T11:16:33.536Z,19.77
2022-12-01T11:19:09.388Z,19.30
2022-12-01T11:21:46.609Z,20.98
2022-12-01T11:24:31.258Z,19.30
2022-12-01T11:27:00.021Z,19.90
2022-12-01T11:29:36.127Z,17.15
2022-12-01T11:32:18.177Z,17.52
2022-12-01T11:34:59.688Z,17.37
2022-12-01T11:37:33.315Z,21.08
2022-12-01T11:40:27.888Z,17.30
2022-12-01T11:43:05.723Z,17.45
2022-12-01T11:45:37.056Z,17.65
2022-12-01T11:48:35.111Z,18.83
2022-12-01T11:51:04.521Z,15.48
2022-12-01T11:53:40.086Z,18.98
2022-12-01T11:56:17.131Z,19.33
2022-12-01T11:58:46.677Z,22.37
2022-12-01T12:01:36.060Z,17.80
2022-12-01T12:04:28.413Z,16.58
2022-12-01T12:07:14.441Z,22.17
2022-12-01T12:10:19.687Z,16.60
2022-12-01T12:13:04.535Z,17.25
2022-12-01T12:15:34.040Z,17.15
2022-12-01T12:18:06.185Z,31.02
2022-12-01T12:20:37.718Z,19.10
2022-12-01T12:49:41.276Z,15.27
2022-12-01T12:52:16.711Z,14.43
2022-12-01T12:55:00.433Z,17.55
2022-12-01T12:57:35.333Z,12.40
2022-12-01T13:00:13.961Z,13.57
2022-12-01T13:02:43.258Z,12.73
2022-12-01T13:05:18.432Z,10.45
2022-12-01T13:07:56.963Z,12.43
2022-12-01T13:10:36.618Z,12.20
2022-12-01T13:13:29.559Z,10.02
2022-12-01T13:15:58.213Z,12.40
2022-12-01T13:18:44.201Z,12.45
2022-12-01T13:21:17.771Z,10.93
2022-12-01T13:23:47.219Z,11.30
2022-12-01T13:26:17.752Z,13.00
2022-12-01T13:28:52.146Z,11.10
2022-12-01T13:31:21.012Z,10.60
2022-12-01T13:33:58.024Z,10.60
2022-12-01T13:36:46.400Z,11.15
2022-12-01T13:39:35.925Z,12.40
2022-12-01T13:42:08.927Z,12.18
2022-12-01T13:47:10.624Z,11.77
2022-12-01T13:49:48.674Z,13.20
2022-12-01T13:52:21.582Z,12.05
2022-12-01T13:55:09.632Z,13.18
2022-12-01T13:57:40.583Z,12.88
2022-12-01T14:00:32.624Z,12.07
2022-12-01T14:03:17.405Z,12.35
2022-12-01T14:06:01.984Z,11.93
2022-12-01T14:08:37.884Z,13.62
2022-12-01T14:11:24.227Z,12.10
2022-12-01T14:13:53.482Z,12.00
2022-12-01T14:16:21.041Z,11.00
2022-12-01T14:18:58.776Z,13.18
2022-12-01T14:21:49.685Z,11.88
2022-12-01T14:24:36.479Z,13.48
2022-12-01T14:27:05.585Z,12.00
2022-12-01T14:29:40.062Z,13.43
2022-12-01T14:32:09.527Z,11.43
2022-12-01T14:34:38.194Z,10.95
2022-12-01T14:37:18.775Z,14.02
2022-12-01T14:40:08.351Z,14.73
2022-12-01T14:42:59.511Z,11.88
2022-12-01T14:45:53.055Z,12.60
2022-12-01T14:51:00.988Z,16.08
2022-12-01T14:53:31.734Z,12.75
2022-12-01T14:56:11.224Z,12.10
2022-12-01T14:58:37.764Z,22.52
2022-12-01T15:01:04.463Z,16.87
2022-12-01T15:03:42.394Z,15.85
2022-12-01T15:06:10.224Z,18.83
2022-12-01T15:08:49.154Z,15.05
2022-12-01T15:11:25.767Z,15.75
2022-12-01T15:13:57.027Z,16.25
2022-12-01T15:16:26.288Z,16.70
2022-12-01T15:18:53.333Z,19.05
2022-12-01T15:21:22.465Z,21.45
2022-12-01T15:24:00.764Z,20.35
2022-12-01T15:26:45.267Z,33.50
2022-12-01T15:29:23.879Z,62.95
2022-12-01T15:31:53.974Z,65.22
2022-12-01T15:34:24.785Z,42.05
2022-12-01T15:36:56.307Z,34.92
2022-12-01T15:39:36.062Z,31.23
2022-12-01T15:42:03.782Z,25.75
2022-12-01T15:44:33.954Z,22.67
2022-12-01T15:47:20.480Z,20.55
2022-12-01T15:49:49.977Z,20.30
2022-12-01T15:52:16.835Z,20.35
2022-12-01T15:54:48.594Z,24.02
2022-12-01T15:57:20.252Z,19.53
2022-12-01T15:59:55.237Z,18.08
2022-12-01T16:02:32.484Z,19.77
2022-12-01T16:05:13.235Z,19.10
2022-12-01T16:10:33.066Z,20.58
2022-12-01T16:13:51.013Z,23.42
2022-12-01T16:16:37.768Z,23.67
2022-12-01T16:19:22.829Z,26.62
2022-12-01T16:21:50.616Z,26.30
2022-12-01T16:24:49.795Z,29.27
2022-12-01T16:27:29.955Z,29.30
2022-12-01T16:30:00.810Z,35.38
2022-12-01T16:32:39.294Z,31.73
2022-12-01T16:35:21.656Z,27.40
2022-12-01T16:37:48.193Z,28.30
2022-12-01T16:40:15.149Z,27.30
2022-12-01T16:42:41.659Z,28.62
2022-12-01T16:45:14.720Z,26.87
2022-12-01T16:50:19.795Z,25.67
2022-12-01T16:52:47.032Z,27.85
2022-12-01T16:55:22.529Z,23.70
2022-12-01T16:57:49.116Z,27.65
2022-12-01T17:00:16.134Z,26.48
2022-12-01T17:02:42.773Z,26.77
2022-12-01T17:05:11.203Z,33.53
2022-12-01T17:07:37.864Z,36.10
2022-12-01T17:10:05.084Z,31.65
2022-12-01T17:12:31.655Z,31.37
2022-12-01T17:14:58.199Z,35.72
2022-12-01T17:17:25.456Z,33.10
2022-12-01T17:19:52.976Z,32.08
2022-12-01T17:22:19.933Z,30.58
2022-12-01T17:24:46.492Z,30.08
2022-12-01T17:27:13.039Z,30.05
2022-12-01T17:29:45.714Z,34.20
2022-12-01T17:32:13.803Z,31.98
2022-12-01T17:34:40.668Z,33.95
2022-12-01T17:37:07.795Z,33.05
2022-12-01T17:39:34.617Z,33.40
2022-12-01T17:42:01.203Z,32.70
2022-12-01T17:44:27.885Z,32.00
2022-12-01T17:46:54.545Z,32.40
2022-12-01T17:49:21.314Z,31.70
2022-12-01T17:51:48.086Z,31.15
2022-12-01T17:54:14.673Z,34.83
2022-12-01T17:56:41.416Z,33.47
2022-12-01T17:59:07.970Z,35.65
2022-12-01T18:01:34.908Z,31.58
2022-12-01T18:04:01.599Z,33.33
2022-12-01T18:06:28.507Z,34.78
2022-12-01T18:08:55.181Z,33.75
2022-12-01T18:11:23.994Z,41.50
2022-12-01T18:13:51.518Z,53.35
2022-12-01T18:16:23.368Z,85.30
2022-12-01T18:18:50.312Z,96.37
2022-12-01T18:21:19.356Z,84.70
2022-12-01T18:23:53.700Z,73.35
2022-12-01T18:26:22.193Z,60.10
2022-12-01T18:29:00.941Z,54.42
2022-12-01T18:31:29.331Z,47.08
2022-12-01T18:34:05.129Z,55.97
2022-12-01T18:36:33.860Z,67.65
2022-12-01T18:39:01.964Z,61.70
2022-12-01T18:41:28.945Z,55.75
2022-12-01T18:43:55.776Z,53.30
2022-12-01T18:46:22.977Z,57.00
2022-12-01T18:48:51.882Z,53.72
2022-12-01T18:51:19.571Z,55.63
2022-12-01T18:53:46.245Z,55.55
2022-12-01T18:56:15.237Z,61.35
2022-12-01T18:58:42.980Z,58.50
2022-12-01T19:01:22.015Z,50.72
2022-12-01T19:03:48.758Z,53.78
2022-12-01T19:06:15.344Z,55.20
2022-12-01T19:08:41.918Z,57.17
2022-12-01T19:11:08.915Z,54.92
2022-12-01T19:13:35.986Z,53.45
2022-12-01T19:16:11.085Z,52.25
2022-12-01T19:18:37.747Z,56.88
2022-12-01T19:21:06.129Z,49.40
2022-12-01T19:23:32.946Z,52.38
2022-12-01T19:26:04.961Z,51.00
2022-12-01T19:28:33.045Z,55.47
2022-12-01T19:31:00.030Z,52.30
2022-12-01T19:33:29.591Z,49.05
2022-12-01T19:35:56.173Z,48.78
2022-12-01T19:38:22.703Z,53.03
2022-12-01T19:40:50.324Z,55.20
2022-12-01T19:43:16.842Z,50.67
2022-12-01T19:45:43.390Z,53.22
2022-12-01T19:48:10.031Z,44.08
2022-12-01T19:50:36.879Z,56.80
2022-12-01T19:53:04.335Z,54.28
2022-12-01T19:55:31.013Z,52.13
2022-12-01T19:57:57.579Z,76.07
2022-12-01T20:00:27.240Z,91.00
2022-12-01T20:02:53.842Z,103.85
2022-12-01T20:05:20.426Z,78.85
2022-12-01T20:07:47.773Z,82.88
2022-12-01T20:10:14.577Z,66.28
2022-12-01T20:12:41.243Z,61.95
2022-12-01T20:15:08.743Z,69.70
2022-12-01T20:17:36.877Z,64.97
2022-12-01T20:20:04.914Z,59.90
2022-12-01T20:22:33.082Z,58.47
2022-12-01T20:24:59.859Z,52.08
2022-12-01T20:27:27.594Z,51.20
2022-12-01T20:29:54.951Z,48.67
2022-12-01T20:32:23.796Z,47.78
2022-12-01T20:34:50.929Z,47.97
2022-12-01T20:37:17.769Z,46.88
2022-12-01T20:39:44.276Z,42.58
2022-12-01T20:42:13.561Z,43.92
2022-12-01T20:44:40.432Z,43.90
2022-12-01T20:47:07.039Z,39.15
2022-12-01T20:49:33.610Z,40.75
2022-12-01T20:52:00.151Z,40.33
2022-12-01T20:54:28.379Z,37.15
2022-12-01T20:56:55.747Z,38.03
2022-12-01T20:59:22.716Z,37.00
2022-12-01T21:01:49.299Z,35.30
2022-12-01T21:04:15.877Z,35.92
2022-12-01T21:06:42.468Z,35.50
2022-12-01T21:09:09.152Z,37.55
2022-12-01T21:12:09.155Z,42.58
2022-12-01T21:14:52.825Z,35.67
2022-12-01T21:17:31.710Z,40.92
2022-12-01T21:20:11.797Z,39.05
2022-12-01T21:22:38.702Z,38.30
2022-12-01T21:25:18.857Z,38.75
2022-12-01T21:27:48.610Z,37.72
2022-12-01T21:30:15.965Z,36.10
2022-12-01T21:33:20.731Z,38.95
2022-12-01T21:36:15.784Z,38.25
2022-12-01T21:38:43.421Z,39.90
2022-12-01T21:41:20.612Z,45.03
2022-12-01T21:43:47.143Z,43.70
2022-12-01T21:46:16.317Z,34.20
2022-12-01T21:54:13.358Z,38.55
2022-12-01T21:56:39.976Z,36.33
2022-12-01T21:59:16.480Z,38.35
2022-12-01T22:01:43.243Z,40.72
2022-12-01T22:04:16.967Z,37.83
2022-12-01T22:12:12.933Z,36.22
2022-12-01T22:14:39.698Z,39.00
2022-12-01T22:39:31.138Z,38.60
2022-12-01T22:42:00.807Z,35.00
2022-12-01T22:44:30.992Z,34.78
2022-12-01T22:47:02.405Z,35.58
2022-12-01T22:49:29.980Z,37.05
2022-12-01T22:56:07.729Z,36.50
2022-12-01T23:01:34.071Z,33.08
2022-12-01T23:04:19.730Z,33.50
2022-12-01T23:06:55.422Z,31.35
2022-12-01T23:09:24.449Z,34.85
2022-12-01T23:12:11.615Z,35.55
2022-12-01T23:14:50.741Z,35.63
2022-12-01T23:17:32.824Z,33.42
2022-12-01T23:20:11.717Z,31.75
2022-12-01T23:22:38.807Z,31.70
2022-12-01T23:25:20.125Z,29.73
2022-12-01T23:27:50.003Z,32.75
2022-12-01T23:30:17.678Z,30.55
2022-12-01T23:32:44.791Z,33.83
2022-12-01T23:35:17.594Z,31.45
2022-12-01T23:37:47.678Z,30.02
2022-12-01T23:40:26.836Z,35.35
2022-12-01T23:42:53.487Z,31.52
2022-12-01T23:45:22.689Z,32.28
2022-12-01T23:47:50.783Z,30.30
2022-12-01T23:50:24.697Z,31.23
2022-12-01T23:52:51.877Z,30.77
2022-12-01T23:55:27.163Z,29.08
2022-12-01T23:57:54.285Z,32.40
